sensor_id;sensor_type;location;lat;lon;timestamp;P1;durP1;ratioP1;P2;durP2;ratioP2
16320;SDS011;8269;50.990;4.494;2023-02-04T00:01:42;28.47;;;19.97;;
16320;SDS011;8269;50.990;4.494;2023-02-04T00:04:10;25.23;;;20.20;;
16320;SDS011;8269;50.990;4.494;2023-02-04T00:06:36;26.50;;;20.40;;
16320;SDS011;8269;50.990;4.494;2023-02-04T00:09:02;30.10;;;20.83;;
16320;SDS011;8269;50.990;4.494;2023-02-04T00:11:29;23.53;;;19.93;;
16320;SDS011;8269;50.990;4.494;2023-02-04T00:13:55;25.80;;;19.47;;
16320;SDS011;8269;50.990;4.494;2023-02-04T00:16:20;24.83;;;19.97;;
16320;SDS011;8269;50.990;4.494;2023-02-04T00:18:46;27.50;;;20.20;;
16320;SDS011;8269;50.990;4.494;2023-02-04T00:21:12;24.93;;;20.17;;
16320;SDS011;8269;50.990;4.494;2023-02-04T00:23:40;27.00;;;21.60;;
16320;SDS011;8269;50.990;4.494;2023-02-04T00:26:06;26.87;;;20.87;;
16320;SDS011;8269;50.990;4.494;2023-02-04T00:28:32;26.23;;;19.83;;
16320;SDS011;8269;50.990;4.494;2023-02-04T00:30:58;30.40;;;20.87;;
16320;SDS011;8269;50.990;4.494;2023-02-04T00:33:24;26.33;;;20.53;;
16320;SDS011;8269;50.990;4.494;2023-02-04T00:35:50;28.10;;;21.53;;
16320;SDS011;8269;50.990;4.494;2023-02-04T00:38:17;25.43;;;20.50;;
16320;SDS011;8269;50.990;4.494;2023-02-04T00:40:43;27.83;;;20.77;;
16320;SDS011;8269;50.990;4.494;2023-02-04T00:43:09;31.30;;;21.37;;
16320;SDS011;8269;50.990;4.494;2023-02-04T00:45:35;27.37;;;21.60;;
16320;SDS011;8269;50.990;4.494;2023-02-04T00:48:01;31.97;;;21.83;;
16320;SDS011;8269;50.990;4.494;2023-02-04T00:50:27;31.17;;;21.93;;
16320;SDS011;8269;50.990;4.494;2023-02-04T00:52:53;31.03;;;22.40;;
16320;SDS011;8269;50.990;4.494;2023-02-04T00:55:19;33.50;;;23.43;;
16320;SDS011;8269;50.990;4.494;2023-02-04T00:57:45;31.33;;;22.87;;
16320;SDS011;8269;50.990;4.494;2023-02-04T01:00:11;31.80;;;22.87;;
16320;SDS011;8269;50.990;4.494;2023-02-04T01:02:38;33.87;;;23.13;;
16320;SDS011;8269;50.990;4.494;2023-02-04T01:05:07;36.40;;;24.40;;
16320;SDS011;8269;50.990;4.494;2023-02-04T01:07:34;32.80;;;22.57;;
16320;SDS011;8269;50.990;4.494;2023-02-04T01:10:00;36.17;;;24.90;;
16320;SDS011;8269;50.990;4.494;2023-02-04T01:12:26;33.37;;;23.37;;
16320;SDS011;8269;50.990;4.494;2023-02-04T01:14:53;31.53;;;22.53;;
16320;SDS011;8269;50.990;4.494;2023-02-04T01:17:19;36.07;;;22.87;;
16320;SDS011;8269;50.990;4.494;2023-02-04T01:19:46;32.73;;;22.97;;
16320;SDS011;8269;50.990;4.494;2023-02-04T01:22:12;37.83;;;23.93;;
16320;SDS011;8269;50.990;4.494;2023-02-04T01:24:38;35.03;;;24.43;;
16320;SDS011;8269;50.990;4.494;2023-02-04T01:27:04;35.83;;;24.63;;
16320;SDS011;8269;50.990;4.494;2023-02-04T01:29:30;36.37;;;24.90;;
16320;SDS011;8269;50.990;4.494;2023-02-04T01:31:56;38.13;;;24.73;;
16320;SDS011;8269;50.990;4.494;2023-02-04T01:34:22;34.77;;;24.30;;
16320;SDS011;8269;50.990;4.494;2023-02-04T01:36:49;33.97;;;23.40;;
16320;SDS011;8269;50.990;4.494;2023-02-04T01:39:16;34.83;;;24.97;;
16320;SDS011;8269;50.990;4.494;2023-02-04T01:41:42;36.60;;;25.27;;
16320;SDS011;8269;50.990;4.494;2023-02-04T01:44:08;38.03;;;24.60;;
16320;SDS011;8269;50.990;4.494;2023-02-04T01:46:34;37.83;;;25.20;;
16320;SDS011;8269;50.990;4.494;2023-02-04T01:49:01;42.27;;;24.87;;
16320;SDS011;8269;50.990;4.494;2023-02-04T01:51:27;40.47;;;26.43;;
16320;SDS011;8269;50.990;4.494;2023-02-04T01:53:55;41.30;;;27.40;;
16320;SDS011;8269;50.990;4.494;2023-02-04T01:56:22;46.97;;;27.60;;
16320;SDS011;8269;50.990;4.494;2023-02-04T01:58:50;44.33;;;28.00;;
16320;SDS011;8269;50.990;4.494;2023-02-04T02:01:36;47.70;;;31.07;;
16320;SDS011;8269;50.990;4.494;2023-02-04T02:04:03;55.97;;;33.47;;
16320;SDS011;8269;50.990;4.494;2023-02-04T02:06:29;55.97;;;35.87;;
16320;SDS011;8269;50.990;4.494;2023-02-04T02:08:55;60.27;;;36.70;;
16320;SDS011;8269;50.990;4.494;2023-02-04T02:11:22;63.10;;;37.33;;
16320;SDS011;8269;50.990;4.494;2023-02-04T02:13:48;64.93;;;38.30;;
16320;SDS011;8269;50.990;4.494;2023-02-04T02:16:14;63.03;;;37.13;;
16320;SDS011;8269;50.990;4.494;2023-02-04T02:18:40;67.20;;;36.67;;
16320;SDS011;8269;50.990;4.494;2023-02-04T02:21:07;69.70;;;37.67;;
16320;SDS011;8269;50.990;4.494;2023-02-04T02:26:09;63.87;;;36.67;;
16320;SDS011;8269;50.990;4.494;2023-02-04T02:28:35;61.90;;;34.30;;
16320;SDS011;8269;50.990;4.494;2023-02-04T02:31:01;66.53;;;37.87;;
16320;SDS011;8269;50.990;4.494;2023-02-04T02:33:28;64.73;;;36.03;;
16320;SDS011;8269;50.990;4.494;2023-02-04T02:35:54;49.97;;;29.40;;
16320;SDS011;8269;50.990;4.494;2023-02-04T02:38:20;57.20;;;32.83;;
16320;SDS011;8269;50.990;4.494;2023-02-04T02:40:46;54.43;;;31.23;;
16320;SDS011;8269;50.990;4.494;2023-02-04T02:43:13;59.17;;;31.87;;
16320;SDS011;8269;50.990;4.494;2023-02-04T02:45:40;51.40;;;29.20;;
16320;SDS011;8269;50.990;4.494;2023-02-04T02:48:06;48.13;;;27.33;;
16320;SDS011;8269;50.990;4.494;2023-02-04T02:50:32;46.17;;;27.10;;
16320;SDS011;8269;50.990;4.494;2023-02-04T02:52:58;47.30;;;27.40;;
16320;SDS011;8269;50.990;4.494;2023-02-04T02:55:24;48.70;;;26.97;;
16320;SDS011;8269;50.990;4.494;2023-02-04T02:57:51;48.87;;;26.90;;
16320;SDS011;8269;50.990;4.494;2023-02-04T03:00:22;49.63;;;25.47;;
16320;SDS011;8269;50.990;4.494;2023-02-04T03:05:21;47.60;;;25.10;;
16320;SDS011;8269;50.990;4.494;2023-02-04T03:07:47;48.80;;;25.37;;
16320;SDS011;8269;50.990;4.494;2023-02-04T03:10:14;45.70;;;25.93;;
16320;SDS011;8269;50.990;4.494;2023-02-04T03:12:40;47.30;;;25.17;;
16320;SDS011;8269;50.990;4.494;2023-02-04T03:15:06;42.03;;;23.40;;
16320;SDS011;8269;50.990;4.494;2023-02-04T03:17:32;47.87;;;23.20;;
16320;SDS011;8269;50.990;4.494;2023-02-04T03:19:59;46.73;;;25.60;;
16320;SDS011;8269;50.990;4.494;2023-02-04T03:22:25;48.00;;;25.07;;
16320;SDS011;8269;50.990;4.494;2023-02-04T03:24:51;43.47;;;23.93;;
16320;SDS011;8269;50.990;4.494;2023-02-04T03:27:17;47.87;;;23.67;;
16320;SDS011;8269;50.990;4.494;2023-02-04T03:29:44;47.07;;;23.97;;
16320;SDS011;8269;50.990;4.494;2023-02-04T03:32:10;41.27;;;22.73;;
16320;SDS011;8269;50.990;4.494;2023-02-04T03:34:36;38.87;;;20.70;;
16320;SDS011;8269;50.990;4.494;2023-02-04T03:37:02;41.17;;;22.40;;
16320;SDS011;8269;50.990;4.494;2023-02-04T03:39:28;42.40;;;21.13;;
16320;SDS011;8269;50.990;4.494;2023-02-04T03:41:54;34.97;;;20.47;;
16320;SDS011;8269;50.990;4.494;2023-02-04T03:44:20;40.00;;;19.70;;
16320;SDS011;8269;50.990;4.494;2023-02-04T03:46:50;38.57;;;20.20;;
16320;SDS011;8269;50.990;4.494;2023-02-04T03:49:19;39.13;;;20.07;;
16320;SDS011;8269;50.990;4.494;2023-02-04T03:51:45;39.70;;;20.57;;
16320;SDS011;8269;50.990;4.494;2023-02-04T03:54:11;41.67;;;20.90;;
16320;SDS011;8269;50.990;4.494;2023-02-04T03:56:37;39.50;;;20.93;;
16320;SDS011;8269;50.990;4.494;2023-02-04T03:59:03;42.43;;;21.30;;
16320;SDS011;8269;50.990;4.494;2023-02-04T04:01:29;41.17;;;21.83;;
16320;SDS011;8269;50.990;4.494;2023-02-04T04:03:55;47.20;;;22.83;;
16320;SDS011;8269;50.990;4.494;2023-02-04T04:06:21;43.60;;;22.10;;
16320;SDS011;8269;50.990;4.494;2023-02-04T04:08:47;48.57;;;23.23;;
16320;SDS011;8269;50.990;4.494;2023-02-04T04:11:13;42.10;;;21.27;;
16320;SDS011;8269;50.990;4.494;2023-02-04T04:13:39;50.27;;;23.77;;
16320;SDS011;8269;50.990;4.494;2023-02-04T04:16:05;48.10;;;23.77;;
16320;SDS011;8269;50.990;4.494;2023-02-04T04:18:32;43.47;;;21.37;;
16320;SDS011;8269;50.990;4.494;2023-02-04T04:20:59;51.70;;;24.10;;
16320;SDS011;8269;50.990;4.494;2023-02-04T04:23:25;45.13;;;23.57;;
16320;SDS011;8269;50.990;4.494;2023-02-04T04:25:51;47.43;;;23.57;;
16320;SDS011;8269;50.990;4.494;2023-02-04T04:28:17;42.70;;;23.03;;
16320;SDS011;8269;50.990;4.494;2023-02-04T04:30:43;47.70;;;22.80;;
16320;SDS011;8269;50.990;4.494;2023-02-04T04:33:09;41.33;;;21.90;;
16320;SDS011;8269;50.990;4.494;2023-02-04T04:35:35;44.47;;;23.37;;
16320;SDS011;8269;50.990;4.494;2023-02-04T04:38:01;48.10;;;23.00;;
16320;SDS011;8269;50.990;4.494;2023-02-04T04:40:27;51.57;;;25.17;;
16320;SDS011;8269;50.990;4.494;2023-02-04T04:42:53;51.50;;;24.70;;
16320;SDS011;8269;50.990;4.494;2023-02-04T04:45:20;56.13;;;25.13;;
16320;SDS011;8269;50.990;4.494;2023-02-04T04:47:46;55.27;;;25.70;;
16320;SDS011;8269;50.990;4.494;2023-02-04T04:50:12;45.37;;;23.43;;
16320;SDS011;8269;50.990;4.494;2023-02-04T04:52:38;46.47;;;23.00;;
16320;SDS011;8269;50.990;4.494;2023-02-04T04:55:04;49.37;;;24.77;;
16320;SDS011;8269;50.990;4.494;2023-02-04T04:57:30;53.97;;;24.20;;
16320;SDS011;8269;50.990;4.494;2023-02-04T04:59:56;50.60;;;24.47;;
16320;SDS011;8269;50.990;4.494;2023-02-04T05:02:22;55.90;;;25.60;;
16320;SDS011;8269;50.990;4.494;2023-02-04T05:04:48;52.97;;;25.63;;
16320;SDS011;8269;50.990;4.494;2023-02-04T05:07:14;57.63;;;25.33;;
16320;SDS011;8269;50.990;4.494;2023-02-04T05:09:40;55.83;;;25.53;;
16320;SDS011;8269;50.990;4.494;2023-02-04T05:12:06;56.13;;;24.60;;
16320;SDS011;8269;50.990;4.494;2023-02-04T05:14:32;51.30;;;25.13;;
16320;SDS011;8269;50.990;4.494;2023-02-04T05:16:58;49.60;;;25.13;;
16320;SDS011;8269;50.990;4.494;2023-02-04T05:19:24;59.03;;;25.17;;
16320;SDS011;8269;50.990;4.494;2023-02-04T05:21:50;52.77;;;24.40;;
16320;SDS011;8269;50.990;4.494;2023-02-04T05:24:16;57.37;;;24.93;;
16320;SDS011;8269;50.990;4.494;2023-02-04T05:26:42;53.90;;;22.90;;
16320;SDS011;8269;50.990;4.494;2023-02-04T05:29:08;57.03;;;24.67;;
16320;SDS011;8269;50.990;4.494;2023-02-04T05:31:34;54.63;;;24.23;;
16320;SDS011;8269;50.990;4.494;2023-02-04T05:34:01;53.07;;;24.60;;
16320;SDS011;8269;50.990;4.494;2023-02-04T05:36:28;49.00;;;23.87;;
16320;SDS011;8269;50.990;4.494;2023-02-04T05:38:54;49.53;;;23.73;;
16320;SDS011;8269;50.990;4.494;2023-02-04T05:41:20;43.20;;;23.10;;
16320;SDS011;8269;50.990;4.494;2023-02-04T05:43:46;56.27;;;25.30;;
16320;SDS011;8269;50.990;4.494;2023-02-04T05:46:12;57.77;;;27.37;;
16320;SDS011;8269;50.990;4.494;2023-02-04T05:48:38;42.67;;;21.70;;
16320;SDS011;8269;50.990;4.494;2023-02-04T05:51:04;43.53;;;22.07;;
16320;SDS011;8269;50.990;4.494;2023-02-04T05:53:30;45.57;;;21.33;;
16320;SDS011;8269;50.990;4.494;2023-02-04T05:55:56;41.87;;;21.20;;
16320;SDS011;8269;50.990;4.494;2023-02-04T05:58:22;46.07;;;21.53;;
16320;SDS011;8269;50.990;4.494;2023-02-04T06:00:48;48.13;;;21.90;;
16320;SDS011;8269;50.990;4.494;2023-02-04T06:03:15;50.57;;;21.90;;
16320;SDS011;8269;50.990;4.494;2023-02-04T06:05:43;46.77;;;21.27;;
16320;SDS011;8269;50.990;4.494;2023-02-04T06:08:09;59.40;;;23.83;;
16320;SDS011;8269;50.990;4.494;2023-02-04T06:10:35;51.50;;;24.43;;
16320;SDS011;8269;50.990;4.494;2023-02-04T06:13:01;52.83;;;25.00;;
16320;SDS011;8269;50.990;4.494;2023-02-04T06:15:27;53.20;;;24.50;;
16320;SDS011;8269;50.990;4.494;2023-02-04T06:17:53;52.57;;;24.93;;
16320;SDS011;8269;50.990;4.494;2023-02-04T06:20:19;57.90;;;25.33;;
16320;SDS011;8269;50.990;4.494;2023-02-04T06:22:45;50.83;;;23.77;;
16320;SDS011;8269;50.990;4.494;2023-02-04T06:25:16;56.77;;;23.87;;
16320;SDS011;8269;50.990;4.494;2023-02-04T06:27:42;53.60;;;23.63;;
16320;SDS011;8269;50.990;4.494;2023-02-04T06:30:09;49.37;;;22.17;;
16320;SDS011;8269;50.990;4.494;2023-02-04T06:32:35;46.90;;;22.07;;
16320;SDS011;8269;50.990;4.494;2023-02-04T06:35:03;47.27;;;22.17;;
16320;SDS011;8269;50.990;4.494;2023-02-04T06:37:30;49.10;;;22.80;;
16320;SDS011;8269;50.990;4.494;2023-02-04T06:39:56;57.17;;;24.87;;
16320;SDS011;8269;50.990;4.494;2023-02-04T06:42:22;51.40;;;24.10;;
16320;SDS011;8269;50.990;4.494;2023-02-04T06:44:49;53.37;;;24.10;;
16320;SDS011;8269;50.990;4.494;2023-02-04T06:47:15;56.90;;;24.03;;
16320;SDS011;8269;50.990;4.494;2023-02-04T06:49:41;51.53;;;24.10;;
16320;SDS011;8269;50.990;4.494;2023-02-04T06:52:08;52.23;;;25.03;;
16320;SDS011;8269;50.990;4.494;2023-02-04T06:54:34;54.50;;;23.97;;
16320;SDS011;8269;50.990;4.494;2023-02-04T06:57:00;58.83;;;23.97;;
16320;SDS011;8269;50.990;4.494;2023-02-04T06:59:34;52.77;;;23.10;;
16320;SDS011;8269;50.990;4.494;2023-02-04T07:02:00;68.73;;;25.97;;
16320;SDS011;8269;50.990;4.494;2023-02-04T07:04:26;56.07;;;25.40;;
16320;SDS011;8269;50.990;4.494;2023-02-04T07:06:52;62.83;;;26.03;;
16320;SDS011;8269;50.990;4.494;2023-02-04T07:09:18;61.97;;;27.67;;
16320;SDS011;8269;50.990;4.494;2023-02-04T07:11:44;59.40;;;26.33;;
16320;SDS011;8269;50.990;4.494;2023-02-04T07:14:10;65.80;;;27.60;;
16320;SDS011;8269;50.990;4.494;2023-02-04T07:16:36;67.53;;;27.67;;
16320;SDS011;8269;50.990;4.494;2023-02-04T07:19:02;81.73;;;28.90;;
16320;SDS011;8269;50.990;4.494;2023-02-04T07:21:28;65.33;;;26.57;;
16320;SDS011;8269;50.990;4.494;2023-02-04T07:23:54;69.13;;;26.27;;
16320;SDS011;8269;50.990;4.494;2023-02-04T07:26:20;65.03;;;27.13;;
16320;SDS011;8269;50.990;4.494;2023-02-04T07:28:46;67.83;;;26.77;;
16320;SDS011;8269;50.990;4.494;2023-02-04T07:31:13;65.70;;;27.73;;
16320;SDS011;8269;50.990;4.494;2023-02-04T07:33:39;61.67;;;25.83;;
16320;SDS011;8269;50.990;4.494;2023-02-04T07:36:05;66.20;;;26.77;;
16320;SDS011;8269;50.990;4.494;2023-02-04T07:38:31;66.77;;;26.93;;
16320;SDS011;8269;50.990;4.494;2023-02-04T07:40:57;74.80;;;27.83;;
16320;SDS011;8269;50.990;4.494;2023-02-04T07:43:23;60.37;;;24.70;;
16320;SDS011;8269;50.990;4.494;2023-02-04T07:45:50;60.67;;;28.10;;
16320;SDS011;8269;50.990;4.494;2023-02-04T07:48:17;58.50;;;27.27;;
16320;SDS011;8269;50.990;4.494;2023-02-04T07:50:43;63.63;;;27.60;;
16320;SDS011;8269;50.990;4.494;2023-02-04T07:53:09;63.50;;;27.00;;
16320;SDS011;8269;50.990;4.494;2023-02-04T07:55:36;61.60;;;26.60;;
16320;SDS011;8269;50.990;4.494;2023-02-04T07:58:02;62.90;;;27.27;;
16320;SDS011;8269;50.990;4.494;2023-02-04T08:00:28;60.13;;;27.20;;
16320;SDS011;8269;50.990;4.494;2023-02-04T08:02:54;57.93;;;26.60;;
16320;SDS011;8269;50.990;4.494;2023-02-04T08:05:20;54.90;;;25.53;;
16320;SDS011;8269;50.990;4.494;2023-02-04T08:07:46;49.97;;;24.73;;
16320;SDS011;8269;50.990;4.494;2023-02-04T08:10:12;46.70;;;24.03;;
16320;SDS011;8269;50.990;4.494;2023-02-04T08:12:38;46.90;;;23.80;;
16320;SDS011;8269;50.990;4.494;2023-02-04T08:15:04;46.60;;;23.73;;
16320;SDS011;8269;50.990;4.494;2023-02-04T08:17:32;41.50;;;23.57;;
16320;SDS011;8269;50.990;4.494;2023-02-04T08:19:58;52.00;;;24.53;;
16320;SDS011;8269;50.990;4.494;2023-02-04T08:22:24;50.20;;;25.00;;
16320;SDS011;8269;50.990;4.494;2023-02-04T08:24:50;57.77;;;26.87;;
16320;SDS011;8269;50.990;4.494;2023-02-04T08:27:16;55.23;;;25.80;;
16320;SDS011;8269;50.990;4.494;2023-02-04T08:29:42;58.83;;;27.47;;
16320;SDS011;8269;50.990;4.494;2023-02-04T08:32:10;55.57;;;26.73;;
16320;SDS011;8269;50.990;4.494;2023-02-04T08:34:37;57.87;;;26.63;;
16320;SDS011;8269;50.990;4.494;2023-02-04T08:37:03;58.70;;;28.73;;
16320;SDS011;8269;50.990;4.494;2023-02-04T08:39:29;58.33;;;28.50;;
16320;SDS011;8269;50.990;4.494;2023-02-04T08:41:56;58.67;;;28.57;;
16320;SDS011;8269;50.990;4.494;2023-02-04T08:44:23;54.87;;;27.60;;
16320;SDS011;8269;50.990;4.494;2023-02-04T08:46:49;54.73;;;27.63;;
16320;SDS011;8269;50.990;4.494;2023-02-04T08:49:15;53.93;;;26.70;;
16320;SDS011;8269;50.990;4.494;2023-02-04T08:51:41;53.93;;;26.13;;
16320;SDS011;8269;50.990;4.494;2023-02-04T08:54:07;58.30;;;29.03;;
16320;SDS011;8269;50.990;4.494;2023-02-04T08:56:34;56.13;;;30.47;;
16320;SDS011;8269;50.990;4.494;2023-02-04T08:59:01;56.70;;;29.87;;
16320;SDS011;8269;50.990;4.494;2023-02-04T09:01:28;45.07;;;25.03;;
16320;SDS011;8269;50.990;4.494;2023-02-04T09:03:54;44.93;;;23.63;;
16320;SDS011;8269;50.990;4.494;2023-02-04T09:06:20;44.87;;;24.13;;
16320;SDS011;8269;50.990;4.494;2023-02-04T09:08:46;45.33;;;23.93;;
16320;SDS011;8269;50.990;4.494;2023-02-04T09:11:12;42.30;;;22.57;;
16320;SDS011;8269;50.990;4.494;2023-02-04T09:13:38;41.73;;;23.43;;
16320;SDS011;8269;50.990;4.494;2023-02-04T09:16:05;40.80;;;21.23;;
16320;SDS011;8269;50.990;4.494;2023-02-04T09:18:31;38.30;;;20.80;;
16320;SDS011;8269;50.990;4.494;2023-02-04T09:20:57;40.57;;;22.30;;
16320;SDS011;8269;50.990;4.494;2023-02-04T09:23:23;41.03;;;22.57;;
16320;SDS011;8269;50.990;4.494;2023-02-04T09:25:49;43.10;;;22.90;;
16320;SDS011;8269;50.990;4.494;2023-02-04T09:28:16;40.57;;;23.33;;
16320;SDS011;8269;50.990;4.494;2023-02-04T09:30:43;38.87;;;21.67;;
16320;SDS011;8269;50.990;4.494;2023-02-04T09:33:10;39.57;;;20.80;;
16320;SDS011;8269;50.990;4.494;2023-02-04T09:35:36;36.63;;;20.60;;
16320;SDS011;8269;50.990;4.494;2023-02-04T09:38:03;38.63;;;20.63;;
16320;SDS011;8269;50.990;4.494;2023-02-04T09:40:30;37.80;;;19.87;;
16320;SDS011;8269;50.990;4.494;2023-02-04T09:42:59;34.33;;;19.43;;
16320;SDS011;8269;50.990;4.494;2023-02-04T09:45:26;34.63;;;19.57;;
16320;SDS011;8269;50.990;4.494;2023-02-04T09:47:52;29.77;;;18.83;;
16320;SDS011;8269;50.990;4.494;2023-02-04T09:50:20;32.37;;;18.30;;
16320;SDS011;8269;50.990;4.494;2023-02-04T09:52:47;29.40;;;19.67;;
16320;SDS011;8269;50.990;4.494;2023-02-04T09:55:15;33.70;;;20.57;;
16320;SDS011;8269;50.990;4.494;2023-02-04T09:57:41;32.83;;;21.77;;
16320;SDS011;8269;50.990;4.494;2023-02-04T10:00:14;31.43;;;21.30;;
16320;SDS011;8269;50.990;4.494;2023-02-04T10:02:41;28.27;;;18.27;;
16320;SDS011;8269;50.990;4.494;2023-02-04T10:05:14;26.93;;;16.83;;
16320;SDS011;8269;50.990;4.494;2023-02-04T10:07:40;22.07;;;14.03;;
16320;SDS011;8269;50.990;4.494;2023-02-04T10:10:12;22.63;;;13.77;;
16320;SDS011;8269;50.990;4.494;2023-02-04T10:12:39;25.23;;;13.57;;
16320;SDS011;8269;50.990;4.494;2023-02-04T10:15:07;19.60;;;11.33;;
16320;SDS011;8269;50.990;4.494;2023-02-04T10:17:35;20.90;;;11.77;;
16320;SDS011;8269;50.990;4.494;2023-02-04T10:20:01;19.20;;;12.20;;
16320;SDS011;8269;50.990;4.494;2023-02-04T10:22:27;22.07;;;12.00;;
16320;SDS011;8269;50.990;4.494;2023-02-04T10:24:53;17.97;;;10.10;;
16320;SDS011;8269;50.990;4.494;2023-02-04T10:27:19;17.40;;;9.07;;
16320;SDS011;8269;50.990;4.494;2023-02-04T10:29:55;14.97;;;8.93;;
16320;SDS011;8269;50.990;4.494;2023-02-04T10:32:25;22.23;;;9.60;;
16320;SDS011;8269;50.990;4.494;2023-02-04T10:34:55;19.60;;;9.03;;
16320;SDS011;8269;50.990;4.494;2023-02-04T10:37:21;18.07;;;8.53;;
16320;SDS011;8269;50.990;4.494;2023-02-04T10:39:48;15.60;;;7.80;;
16320;SDS011;8269;50.990;4.494;2023-02-04T10:44:46;18.10;;;6.47;;
16320;SDS011;8269;50.990;4.494;2023-02-04T10:47:20;13.43;;;6.80;;
16320;SDS011;8269;50.990;4.494;2023-02-04T10:49:54;15.83;;;7.10;;
16320;SDS011;8269;50.990;4.494;2023-02-04T10:52:21;16.80;;;6.80;;
16320;SDS011;8269;50.990;4.494;2023-02-04T10:54:49;16.40;;;6.47;;
16320;SDS011;8269;50.990;4.494;2023-02-04T10:57:20;12.73;;;5.67;;
16320;SDS011;8269;50.990;4.494;2023-02-04T10:59:47;14.73;;;6.17;;
16320;SDS011;8269;50.990;4.494;2023-02-04T11:04:58;13.70;;;6.30;;
16320;SDS011;8269;50.990;4.494;2023-02-04T11:07:25;12.33;;;5.87;;
16320;SDS011;8269;50.990;4.494;2023-02-04T11:09:51;14.27;;;6.00;;
16320;SDS011;8269;50.990;4.494;2023-02-04T11:12:22;14.60;;;5.97;;
16320;SDS011;8269;50.990;4.494;2023-02-04T11:14:55;13.97;;;6.33;;
16320;SDS011;8269;50.990;4.494;2023-02-04T11:17:27;12.27;;;5.47;;
16320;SDS011;8269;50.990;4.494;2023-02-04T11:19:54;11.60;;;5.33;;
16320;SDS011;8269;50.990;4.494;2023-02-04T11:22:22;11.67;;;8.20;;
16320;SDS011;8269;50.990;4.494;2023-02-04T11:24:48;11.97;;;7.30;;
16320;SDS011;8269;50.990;4.494;2023-02-04T11:27:24;12.23;;;6.70;;
16320;SDS011;8269;50.990;4.494;2023-02-04T11:29:51;13.30;;;6.33;;
16320;SDS011;8269;50.990;4.494;2023-02-04T11:32:33;11.63;;;5.90;;
16320;SDS011;8269;50.990;4.494;2023-02-04T11:35:44;14.63;;;5.53;;
16320;SDS011;8269;50.990;4.494;2023-02-04T11:37:52;9.60;;;5.33;;
16320;SDS011;8269;50.990;4.494;2023-02-04T11:42:47;9.87;;;6.50;;
16320;SDS011;8269;50.990;4.494;2023-02-04T11:45:22;9.97;;;6.27;;
16320;SDS011;8269;50.990;4.494;2023-02-04T11:47:49;11.90;;;6.90;;
16320;SDS011;8269;50.990;4.494;2023-02-04T11:50:20;11.07;;;7.20;;
16320;SDS011;8269;50.990;4.494;2023-02-04T11:52:47;15.97;;;7.50;;
16320;SDS011;8269;50.990;4.494;2023-02-04T11:55:13;12.40;;;8.00;;
16320;SDS011;8269;50.990;4.494;2023-02-04T11:57:40;14.47;;;7.90;;
16320;SDS011;8269;50.990;4.494;2023-02-04T12:00:16;10.93;;;7.63;;
16320;SDS011;8269;50.990;4.494;2023-02-04T12:02:43;12.17;;;8.37;;
16320;SDS011;8269;50.990;4.494;2023-02-04T12:05:12;18.73;;;8.90;;
16320;SDS011;8269;50.990;4.494;2023-02-04T12:07:38;13.13;;;9.33;;
16320;SDS011;8269;50.990;4.494;2023-02-04T12:10:21;12.90;;;9.07;;
16320;SDS011;8269;50.990;4.494;2023-02-04T12:12:50;13.67;;;9.17;;
16320;SDS011;8269;50.990;4.494;2023-02-04T12:15:23;11.27;;;9.63;;
16320;SDS011;8269;50.990;4.494;2023-02-04T12:18:00;12.07;;;8.97;;
16320;SDS011;8269;50.990;4.494;2023-02-04T12:20:27;11.63;;;9.97;;
16320;SDS011;8269;50.990;4.494;2023-02-04T12:22:53;11.00;;;9.37;;
16320;SDS011;8269;50.990;4.494;2023-02-04T12:25:19;10.73;;;9.60;;
16320;SDS011;8269;50.990;4.494;2023-02-04T12:27:45;11.90;;;10.03;;
16320;SDS011;8269;50.990;4.494;2023-02-04T12:30:11;11.97;;;9.63;;
16320;SDS011;8269;50.990;4.494;2023-02-04T12:32:37;11.27;;;10.13;;
16320;SDS011;8269;50.990;4.494;2023-02-04T12:35:03;12.87;;;11.23;;
16320;SDS011;8269;50.990;4.494;2023-02-04T12:37:30;17.53;;;13.93;;
16320;SDS011;8269;50.990;4.494;2023-02-04T12:39:56;14.70;;;12.73;;
16320;SDS011;8269;50.990;4.494;2023-02-04T12:42:22;17.77;;;13.67;;
16320;SDS011;8269;50.990;4.494;2023-02-04T12:44:48;19.73;;;14.77;;
16320;SDS011;8269;50.990;4.494;2023-02-04T12:47:14;19.90;;;16.07;;
16320;SDS011;8269;50.990;4.494;2023-02-04T12:49:40;20.90;;;15.03;;
16320;SDS011;8269;50.990;4.494;2023-02-04T12:52:07;17.23;;;13.63;;
16320;SDS011;8269;50.990;4.494;2023-02-04T12:54:33;20.00;;;14.77;;
16320;SDS011;8269;50.990;4.494;2023-02-04T12:56:59;20.87;;;14.83;;
16320;SDS011;8269;50.990;4.494;2023-02-04T12:59:27;18.90;;;13.63;;
16320;SDS011;8269;50.990;4.494;2023-02-04T13:01:55;19.97;;;15.10;;
16320;SDS011;8269;50.990;4.494;2023-02-04T13:04:21;19.83;;;14.83;;
16320;SDS011;8269;50.990;4.494;2023-02-04T13:06:47;18.83;;;13.47;;
16320;SDS011;8269;50.990;4.494;2023-02-04T13:09:13;19.13;;;13.93;;
16320;SDS011;8269;50.990;4.494;2023-02-04T13:11:39;16.50;;;13.87;;
16320;SDS011;8269;50.990;4.494;2023-02-04T13:14:05;21.27;;;13.77;;
16320;SDS011;8269;50.990;4.494;2023-02-04T13:16:31;17.37;;;13.53;;
16320;SDS011;8269;50.990;4.494;2023-02-04T13:18:57;24.10;;;15.03;;
16320;SDS011;8269;50.990;4.494;2023-02-04T13:21:23;17.40;;;12.73;;
16320;SDS011;8269;50.990;4.494;2023-02-04T13:23:49;15.97;;;12.30;;
16320;SDS011;8269;50.990;4.494;2023-02-04T13:26:15;17.07;;;12.20;;
16320;SDS011;8269;50.990;4.494;2023-02-04T13:28:41;17.80;;;12.20;;
16320;SDS011;8269;50.990;4.494;2023-02-04T13:31:07;19.23;;;12.37;;
16320;SDS011;8269;50.990;4.494;2023-02-04T13:33:33;15.37;;;12.63;;
16320;SDS011;8269;50.990;4.494;2023-02-04T13:35:59;18.10;;;13.07;;
16320;SDS011;8269;50.990;4.494;2023-02-04T13:38:25;17.60;;;12.60;;
16320;SDS011;8269;50.990;4.494;2023-02-04T13:40:51;15.23;;;12.10;;
16320;SDS011;8269;50.990;4.494;2023-02-04T13:43:17;21.23;;;13.33;;
16320;SDS011;8269;50.990;4.494;2023-02-04T13:45:43;18.93;;;13.30;;
16320;SDS011;8269;50.990;4.494;2023-02-04T13:48:12;15.27;;;11.93;;
16320;SDS011;8269;50.990;4.494;2023-02-04T13:50:39;17.03;;;12.27;;
16320;SDS011;8269;50.990;4.494;2023-02-04T13:53:05;16.60;;;13.53;;
16320;SDS011;8269;50.990;4.494;2023-02-04T13:55:32;18.97;;;13.27;;
16320;SDS011;8269;50.990;4.494;2023-02-04T13:57:58;20.47;;;13.43;;
16320;SDS011;8269;50.990;4.494;2023-02-04T14:00:24;18.83;;;14.33;;
16320;SDS011;8269;50.990;4.494;2023-02-04T14:02:50;19.37;;;13.50;;
16320;SDS011;8269;50.990;4.494;2023-02-04T14:05:16;17.47;;;13.43;;
16320;SDS011;8269;50.990;4.494;2023-02-04T14:07:42;15.13;;;12.37;;
16320;SDS011;8269;50.990;4.494;2023-02-04T14:10:09;21.53;;;12.43;;
16320;SDS011;8269;50.990;4.494;2023-02-04T14:12:35;16.87;;;12.90;;
16320;SDS011;8269;50.990;4.494;2023-02-04T14:15:01;18.33;;;12.97;;
16320;SDS011;8269;50.990;4.494;2023-02-04T14:17:27;17.70;;;12.87;;
16320;SDS011;8269;50.990;4.494;2023-02-04T14:19:53;18.70;;;13.40;;
16320;SDS011;8269;50.990;4.494;2023-02-04T14:22:19;19.37;;;13.47;;
16320;SDS011;8269;50.990;4.494;2023-02-04T14:24:45;19.40;;;13.17;;
16320;SDS011;8269;50.990;4.494;2023-02-04T14:27:11;19.40;;;13.20;;
16320;SDS011;8269;50.990;4.494;2023-02-04T14:29:39;19.77;;;13.67;;
16320;SDS011;8269;50.990;4.494;2023-02-04T14:32:05;17.67;;;13.07;;
16320;SDS011;8269;50.990;4.494;2023-02-04T14:34:31;19.83;;;13.27;;
16320;SDS011;8269;50.990;4.494;2023-02-04T14:36:57;19.30;;;15.50;;
16320;SDS011;8269;50.990;4.494;2023-02-04T14:39:23;20.00;;;14.40;;
16320;SDS011;8269;50.990;4.494;2023-02-04T14:41:49;19.87;;;16.07;;
16320;SDS011;8269;50.990;4.494;2023-02-04T14:44:15;21.73;;;16.67;;
16320;SDS011;8269;50.990;4.494;2023-02-04T14:46:45;23.87;;;16.63;;